• Join FlightAware (Why Join?)
  • Login
  • US Flag 
05:50PM EDT


 

Airport Tracker/Info


-or-


 

Live Flight TrackerFlight Track Log ✈ ASQ4421 ✈ 30-Jan-2014 ✈ CYOW - KIAD

Flight Track Log - Related Links

Times and Time Zones

All times are in EST time to prevent confusion due to time zone crossing. See the ASQ4421 flight status page for this flight to view local times or setup timezone preferences in your user account.

Time Position Orientation Groundspeed Altitude Reporting Facility
EST Latitude Longitude Course Direction KTS MPH feet Rate Location/Type
06:20AM 45.2833 -75.6333 198° South 150 173 1,800  Level Montreal Center
06:21AM 45.2667 -75.5833 115° Southeast 190 219 4,200 2,520 Climbing Montreal Center
06:22AM 45.2167 -75.5667 167° South 210 242 6,900 2,400 Climbing Montreal Center
06:23AM 45.1500 -75.6167 208° Southwest 250 288 9,100 2,220 Climbing Montreal Center
06:24AM 44.8954 -75.7752 196° South  Level FlightAware Approximate
06:24AM 45.0833 -75.6667 208° Southwest 270 311 11,400  Level Montreal Center
06:25AM 44.8185 -75.8060 196° South  Level FlightAware Approximate
06:25AM 45.0167 -75.7000 199° South 320 368 12,500  Level Montreal Center
06:26AM 44.7221 -75.8458 198° South  Level FlightAware Approximate
06:26AM 44.9333 -75.7833 215° Southwest 320 368 14,600  Level Montreal Center
06:27AM 44.8500 -75.8500 210° Southwest 330 380 16,200 1,500 Climbing Montreal Center
06:28AM 44.7833 -75.9000 208° Southwest 340 391 17,700 1,440 Climbing Montreal Center
06:29AM 44.6833 -75.9667 205° Southwest 340 391 19,100 1,380 Climbing Montreal Center
06:30AM 44.5833 -76.0000 193° South 370 426 20,500 1,320 Climbing Montreal Center
06:31AM 44.4833 -76.0000 180° South 380 437 21,800 1,500 Climbing Montreal Center
06:32AM 44.3833 -76.0167 187° South 370 426 23,600 1,800 Climbing Montreal Center
06:33AM 44.2833 -76.0167 180° South 370 426 25,400 1,560 Climbing Montreal Center
06:34AM 44.1833 -76.0333 187° South 370 426 26,800 1,380 Climbing Montreal Center
06:35AM 44.1067 -76.0489 188° South 367 422 28,200 1,560 Climbing Boston Center
06:36AM 44.0072 -76.0597 184° South 365 420 29,900 900 Climbing Boston Center
06:37AM 43.9047 -76.0733 185° South 371 427 30,000  Climbing Boston Center
06:38AM 43.7936 -76.0942 188° South 397 457 30,000  Level Boston Center
06:39AM 43.6797 -76.1136 187° South 410 472 30,000  Level Boston Center
06:40AM 43.5644 -76.1333 187° South 417 480 30,000  Level Boston Center
06:42AM 43.4492 -76.1536 187° South 422 486 30,000  Level Boston Center
06:43AM 43.3089 -76.1789 187° South 423 487 30,000  Level Boston Center
06:44AM 43.1922 -76.1983 187° South 423 487 30,000  Level Boston Center
06:45AM 43.0892 -76.2642 205° Southwest 408 470 30,000  Level Boston Center
06:46AM 42.9147 -76.4078 211° Southwest 410 472 30,000  Level Cleveland Center
06:47AM 42.8175 -76.4878 211° Southwest 408 470 30,000  Level Cleveland Center
06:48AM 42.7222 -76.5658 211° Southwest 405 466 30,000  Level Cleveland Center
06:50AM 42.6142 -76.6531 211° Southwest 403 464 30,000  Level Boston Center
06:51AM 42.5000 -76.7458 211° Southwest 400 460 30,000  Level Boston Center
06:52AM 42.4050 -76.8239 211° Southwest 400 460 30,000  Level Boston Center
06:53AM 42.3086 -76.9028 211° Southwest 404 465 30,000  Level New York Center
06:54AM 42.2128 -76.9808 211° Southwest 404 465 30,000 -600 Level New York Center
06:55AM 42.1172 -77.0556 210° Southwest 404 465 28,800 -1,080 Descending New York Center
06:56AM 42.0369 -77.1181 210° Southwest 411 473 28,000 -420 Descending Cleveland Center
06:57AM 41.9386 -77.1978 211° Southwest 413 475 28,000  Level Cleveland Center
06:58AM 41.8214 -77.2922 211° Southwest 414 476 28,000  Level New York Center
06:59AM 41.7233 -77.3689 210° Southwest 414 476 28,000  Level New York Center
07:00AM 41.6253 -77.4478 211° Southwest 420 483 28,000  Level New York Center
07:01AM 41.5253 -77.5239 210° Southwest 420 483 28,000 -600 Level New York Center
07:02AM 41.4336 -77.5950 210° Southwest 420 483 26,900 -1,560 Descending New York Center
07:03AM 41.3333 -77.6733 210° Southwest 420 483 24,900 -2,040 Descending New York Center
07:04AM 41.2394 -77.7464 210° Southwest 420 483 22,900 -2,040 Descending New York Center
07:05AM 41.1411 -77.8219 210° Southwest 414 476 20,900 -2,040 Descending New York Center
07:06AM 41.0350 -77.8519 192° South 409 471 18,900 -1,500 Descending New York Center
07:07AM 40.9325 -77.7892 155° Southeast 371 427 18,000 -480 Descending New York Center
07:08AM 40.8350 -77.7106 149° Southeast 377 434 18,000  Level New York Center
07:09AM 40.7375 -77.6322 149° Southeast 398 458 18,000  Level New York Center
07:10AM 40.6275 -77.5500 150° Southeast 403 464 18,000  Level New York Center
07:11AM 40.5339 -77.4725 148° Southeast 403 464 18,000  Level New York Center
07:12AM 40.4400 -77.4006 150° Southeast 403 464 18,000  Level New York Center
07:13AM 40.3319 -77.3578 163° South 403 464 18,000 -420 Level New York Center
07:14AM 40.2353 -77.3350 170° South 398 458 17,200 -1,500 Descending New York Center
07:16AM 40.0000 -77.2833 170° South 371 427 13,100 -1,260 Descending Potomac TRACON
07:17AM 39.8833 -77.2667 174° South 369 425 13,100 -120 Level Potomac TRACON
07:18AM 39.8000 -77.2833 189° South 313 360 12,900 -900 Descending Potomac TRACON
07:19AM 39.7333 -77.3000 191° South 279 321 11,400 -1,500 Descending Potomac TRACON
07:20AM 39.6667 -77.3333 201° Southwest 264 304 10,000 -960 Descending Potomac TRACON
07:21AM 39.6000 -77.3333 180° South 273 314 9,600 -1,020 Descending Potomac TRACON
07:22AM 39.5167 -77.3500 189° South 268 308 8,200 -1,380 Descending Potomac TRACON
07:23AM 39.4500 -77.3500 180° South 254 292 7,000 -780 Descending Potomac TRACON
07:24AM 39.3833 -77.3667 191° South 254 292 6,700 -840 Descending Potomac TRACON
07:25AM 39.3333 -77.3667 180° South 253 291 5,500 -960 Descending Potomac TRACON
07:26AM 39.2667 -77.3667 180° South 251 289 5,000 -780 Descending Potomac TRACON
07:27AM 39.1833 -77.3667 180° South 245 282 4,100 -540 Descending Potomac TRACON
07:27AM 39.1333 -77.3500 166° South 238 274 4,000 -60 Descending Potomac TRACON
07:28AM 39.0667 -77.3500 180° South 237 273 4,000  Level Potomac TRACON
07:29AM 39.0000 -77.3500 180° South 245 282 4,000  Level Potomac TRACON
07:30AM 38.9333 -77.3500 180° South 247 284 4,000 -480 Level Potomac TRACON
07:31AM 38.8667 -77.3667 191° South 215 247 3,200 -1,080 Descending Potomac TRACON
07:32AM 38.8667 -77.4167 270° West 174 200 1,900 -1,080 Descending Potomac TRACON
07:33AM 38.9000 -77.4333 339° North 117 135 1,000 -840 Descending Potomac TRACON